createdAt,value
2023-04-01T00:00:54.581Z,0.70
2023-04-01T00:03:21.935Z,1.00
2023-04-01T00:05:48.575Z,1.27
2023-04-01T00:08:15.162Z,0.90
2023-04-01T00:10:41.553Z,0.80
2023-04-01T00:13:08.811Z,0.70
2023-04-01T00:15:35.431Z,1.48
2023-04-01T00:18:02.184Z,1.05
2023-04-01T00:20:28.931Z,0.70
2023-04-01T00:22:55.939Z,1.20
2023-04-01T00:25:22.610Z,0.80
2023-04-01T00:27:49.057Z,0.85
2023-04-01T00:30:15.427Z,1.10
2023-04-01T00:32:41.985Z,0.68
2023-04-01T00:35:08.715Z,0.60
2023-04-01T00:37:38.524Z,0.68
2023-04-01T00:40:06.176Z,0.70
2023-04-01T00:42:32.666Z,0.60
2023-04-01T00:44:59.810Z,0.80
2023-04-01T00:47:26.916Z,0.70
2023-04-01T00:49:55.027Z,0.60
2023-04-01T00:52:23.722Z,0.57
2023-04-01T00:54:51.379Z,0.80
2023-04-01T00:57:24.663Z,0.55
2023-04-01T00:59:53.637Z,0.93
2023-04-01T01:02:20.704Z,0.93
2023-04-01T01:04:47.196Z,1.20
2023-04-01T01:07:32.168Z,0.50
2023-04-01T01:09:58.493Z,0.93
2023-04-01T01:12:31.563Z,0.70
2023-04-01T01:15:20.584Z,0.60
2023-04-01T01:17:52.853Z,0.50
2023-04-01T01:20:26.574Z,0.43
2023-04-01T01:23:13.560Z,0.77
2023-04-01T01:25:56.948Z,0.77
2023-04-01T01:28:38.388Z,0.75
2023-04-01T01:31:13.287Z,0.50
2023-04-01T01:33:59.930Z,0.52
2023-04-01T01:36:29.137Z,0.40
2023-04-01T01:38:56.001Z,0.60
2023-04-01T01:41:24.654Z,0.70
2023-04-01T01:43:51.743Z,0.47
2023-04-01T01:46:20.513Z,0.70
2023-04-01T01:48:47.760Z,0.70
2023-04-01T01:51:14.146Z,0.60
2023-04-01T01:53:40.485Z,0.70
2023-04-01T01:56:06.984Z,0.40
2023-04-01T01:58:35.886Z,0.60
2023-04-01T02:01:06.074Z,0.60
2023-04-01T02:03:35.363Z,0.70
2023-04-01T02:06:03.021Z,0.70
2023-04-01T02:08:36.630Z,0.60
2023-04-01T02:11:04.661Z,0.70
2023-04-01T02:13:51.358Z,0.57
2023-04-01T02:16:23.057Z,0.70
2023-04-01T02:18:51.300Z,0.63
2023-04-01T02:21:19.390Z,0.60
2023-04-01T02:23:46.544Z,0.90
2023-04-01T02:26:13.727Z,0.52
2023-04-01T02:28:41.275Z,1.10
2023-04-01T02:31:08.978Z,0.47
2023-04-01T02:33:35.716Z,0.55
2023-04-01T02:36:02.238Z,0.65
2023-04-01T02:38:28.751Z,0.60
2023-04-01T02:40:59.826Z,1.00
2023-04-01T02:43:26.145Z,0.70
2023-04-01T02:45:52.586Z,0.40
2023-04-01T02:48:19.025Z,0.55
2023-04-01T02:50:45.578Z,0.60
2023-04-01T02:53:12.290Z,0.60
2023-04-01T02:55:39.047Z,0.70
2023-04-01T02:58:05.438Z,0.68
2023-04-01T03:00:31.738Z,0.50
2023-04-01T03:02:58.241Z,0.60
2023-04-01T03:05:24.826Z,0.65
2023-04-01T03:07:51.226Z,0.60
2023-04-01T03:10:17.647Z,0.40
2023-04-01T03:12:44.488Z,0.70
2023-04-01T03:15:11.768Z,0.70
2023-04-01T03:17:38.974Z,0.70
2023-04-01T03:20:06.018Z,0.40
2023-04-01T03:22:32.526Z,0.55
2023-04-01T03:24:58.972Z,0.60
2023-04-01T03:27:25.311Z,0.50
2023-04-01T03:29:51.692Z,0.60
2023-04-01T03:32:18.074Z,0.40
2023-04-01T03:34:44.492Z,0.70
2023-04-01T03:37:10.892Z,0.50
2023-04-01T03:39:37.291Z,0.30
2023-04-01T03:42:03.667Z,0.57
2023-04-01T03:44:36.097Z,0.40
2023-04-01T03:47:02.471Z,0.50
2023-04-01T03:49:28.813Z,0.40
2023-04-01T03:51:55.181Z,0.50
2023-04-01T03:54:21.606Z,0.70
2023-04-01T03:56:48.049Z,0.60
2023-04-01T03:59:14.741Z,0.60
2023-04-01T04:01:41.128Z,0.45
2023-04-01T04:04:07.881Z,0.60
2023-04-01T04:06:34.500Z,0.40
2023-04-01T04:09:00.936Z,0.55
2023-04-01T04:11:27.372Z,0.40
2023-04-01T04:13:54.040Z,0.60
2023-04-01T04:16:21.189Z,0.45
2023-04-01T04:18:47.559Z,0.50
2023-04-01T04:21:14.930Z,0.47
2023-04-01T04:23:41.830Z,0.50
2023-04-01T04:26:09.673Z,0.40
2023-04-01T04:28:36.044Z,0.57
2023-04-01T04:31:02.840Z,0.50
2023-04-01T04:33:29.414Z,0.40
2023-04-01T04:35:56.869Z,0.50
2023-04-01T04:38:23.282Z,0.63
2023-04-01T04:40:49.650Z,0.60
2023-04-01T04:43:16.319Z,0.50
2023-04-01T04:45:42.797Z,0.40
2023-04-01T04:48:10.148Z,0.60
2023-04-01T04:50:36.783Z,0.30
2023-04-01T04:53:03.589Z,0.50
2023-04-01T04:55:30.180Z,0.40
2023-04-01T04:57:56.499Z,0.45
2023-04-01T05:00:22.920Z,0.63
2023-04-01T05:02:49.467Z,0.40
2023-04-01T05:05:16.049Z,0.40
2023-04-01T05:07:42.361Z,0.47
2023-04-01T05:10:08.966Z,0.50
2023-04-01T05:12:38.317Z,0.43
2023-04-01T05:15:05.886Z,0.47
2023-04-01T05:17:32.453Z,0.40
2023-04-01T05:19:59.227Z,0.50
2023-04-01T05:22:25.687Z,0.40
2023-04-01T05:24:52.239Z,0.40
2023-04-01T05:27:18.633Z,0.40
2023-04-01T05:29:44.938Z,0.40
2023-04-01T05:32:11.365Z,0.50
2023-04-01T05:34:37.703Z,0.50
2023-04-01T05:37:04.065Z,0.40
2023-04-01T05:39:30.488Z,0.40
2023-04-01T05:41:56.853Z,0.50
2023-04-01T05:44:23.227Z,0.30
2023-04-01T05:46:49.670Z,0.40
2023-04-01T05:49:16.083Z,0.40
2023-04-01T05:51:42.379Z,0.40
2023-04-01T05:54:08.686Z,0.50
2023-04-01T05:56:35.038Z,0.50
2023-04-01T05:59:01.443Z,0.30
2023-04-01T06:01:27.942Z,0.30
2023-04-01T06:03:54.554Z,0.40
2023-04-01T06:06:24.381Z,0.40
2023-04-01T06:08:51.062Z,0.30
2023-04-01T06:11:27.817Z,0.90
2023-04-01T06:14:06.148Z,0.40
2023-04-01T06:16:51.190Z,0.40
2023-04-01T06:19:36.242Z,0.60
2023-04-01T06:22:05.370Z,0.50
2023-04-01T06:24:37.580Z,0.50
2023-04-01T06:27:03.879Z,0.50
2023-04-01T06:29:36.058Z,0.90
2023-04-01T06:32:14.869Z,0.70
2023-04-01T06:35:00.169Z,0.70
2023-04-01T06:37:41.564Z,0.73
2023-04-01T06:40:11.018Z,0.60
2023-04-01T06:42:52.768Z,0.40
2023-04-01T06:45:19.225Z,0.65
2023-04-01T06:47:58.569Z,0.88
2023-04-01T06:50:36.355Z,1.17
2023-04-01T06:53:15.442Z,0.80
2023-04-01T06:55:56.749Z,0.50
2023-04-01T06:58:30.099Z,0.40
2023-04-01T07:01:01.003Z,0.70
2023-04-01T07:03:31.422Z,0.50
2023-04-01T07:05:59.182Z,0.70
2023-04-01T07:08:29.078Z,0.60
2023-04-01T07:10:58.400Z,0.63
2023-04-01T07:13:30.710Z,0.60
2023-04-01T07:16:16.062Z,1.05
2023-04-01T07:18:45.585Z,0.60
2023-04-01T07:21:19.169Z,0.75
2023-04-01T07:23:46.733Z,0.70
2023-04-01T07:26:24.078Z,0.60
2023-04-01T07:28:52.464Z,0.68
2023-04-01T07:31:18.758Z,0.70
2023-04-01T07:33:59.568Z,0.40
2023-04-01T07:36:46.192Z,0.63
2023-04-01T07:39:25.658Z,0.47
2023-04-01T07:41:56.654Z,0.70
2023-04-01T07:44:22.979Z,0.52
2023-04-01T07:46:49.375Z,0.70
2023-04-01T07:49:23.803Z,1.10
2023-04-01T07:51:56.646Z,0.50
2023-04-01T07:54:26.811Z,0.80
2023-04-01T07:56:59.749Z,0.90
2023-04-01T07:59:32.192Z,0.70
2023-04-01T08:02:07.443Z,0.60
2023-04-01T08:04:52.135Z,0.50
2023-04-01T08:07:21.488Z,0.40
2023-04-01T08:09:56.996Z,0.40
2023-04-01T08:12:26.098Z,0.60
2023-04-01T08:15:11.492Z,0.50
2023-04-01T08:17:45.833Z,0.43
2023-04-01T08:20:17.402Z,0.40
2023-04-01T08:22:51.208Z,0.80
2023-04-01T08:25:21.076Z,1.05
2023-04-01T08:27:49.730Z,0.60
2023-04-01T08:30:24.271Z,0.68
2023-04-01T08:33:02.233Z,0.40
2023-04-01T08:35:49.128Z,0.50
2023-04-01T08:38:19.334Z,0.38
2023-04-01T08:40:55.007Z,0.50
2023-04-01T08:43:40.302Z,0.50
2023-04-01T08:46:06.755Z,0.40
2023-04-01T08:48:39.090Z,0.40
2023-04-01T08:51:31.925Z,0.50
2023-04-01T08:54:03.532Z,0.50
2023-04-01T08:56:36.315Z,0.47
2023-04-01T08:59:28.933Z,0.90
2023-04-01T09:01:58.125Z,1.90
2023-04-01T09:04:43.505Z,0.80
2023-04-01T09:07:28.214Z,0.70
2023-04-01T09:10:08.401Z,0.55
2023-04-01T09:12:50.026Z,0.50
2023-04-01T09:15:32.077Z,0.60
2023-04-01T09:18:17.508Z,0.50
2023-04-01T09:20:47.328Z,0.63
2023-04-01T09:23:22.514Z,2.00
2023-04-01T09:25:59.746Z,1.60
2023-04-01T09:28:29.370Z,0.80
2023-04-01T09:31:10.971Z,0.60
2023-04-01T09:33:40.210Z,0.85
2023-04-01T09:36:06.543Z,0.70
2023-04-01T09:38:38.853Z,0.85
2023-04-01T09:41:22.995Z,0.70
2023-04-01T09:44:02.640Z,0.70
2023-04-01T09:46:32.280Z,0.60
2023-04-01T09:49:17.386Z,0.80
2023-04-01T09:51:46.505Z,0.50
2023-04-01T09:54:15.956Z,0.60
2023-04-01T09:57:01.822Z,0.90
2023-04-01T09:59:48.718Z,0.70
2023-04-01T10:02:30.467Z,1.02
2023-04-01T10:05:12.744Z,1.05
2023-04-01T10:07:57.847Z,1.00
2023-04-01T10:10:30.326Z,0.90
2023-04-01T10:13:08.943Z,0.65
2023-04-01T10:15:48.252Z,0.90
2023-04-01T10:18:34.480Z,0.60
2023-04-01T10:21:01.005Z,0.68
2023-04-01T10:23:30.563Z,0.70
2023-04-01T10:26:22.329Z,0.63
2023-04-01T10:28:48.735Z,1.27
2023-04-01T10:31:27.156Z,0.90
2023-04-01T10:33:59.373Z,1.50
2023-04-01T10:36:44.283Z,1.00
2023-04-01T10:39:30.981Z,1.15
2023-04-01T10:42:12.528Z,1.00
2023-04-01T10:44:38.813Z,0.75
2023-04-01T10:47:14.051Z,0.70
2023-04-01T10:49:59.338Z,0.90
2023-04-01T10:52:44.408Z,1.10
2023-04-01T10:55:10.702Z,0.55
2023-04-01T10:57:49.046Z,1.00
2023-04-01T11:00:32.646Z,1.00
2023-04-01T11:03:05.153Z,1.15
2023-04-01T11:05:32.377Z,2.15
2023-04-01T11:08:06.040Z,1.60
2023-04-01T11:10:33.622Z,1.10
2023-04-01T11:13:06.176Z,1.02
2023-04-01T11:15:45.109Z,0.70
2023-04-01T11:18:14.278Z,1.00
2023-04-01T11:20:56.572Z,0.90
2023-04-01T11:23:32.116Z,0.88
2023-04-01T11:26:01.294Z,0.85
2023-04-01T11:28:27.632Z,0.90
2023-04-01T11:31:12.032Z,0.75
2023-04-01T11:33:55.197Z,0.82
2023-04-01T11:36:33.620Z,0.82
2023-04-01T11:38:59.970Z,1.20
2023-04-01T11:41:46.307Z,1.17
2023-04-01T11:44:17.864Z,0.73
2023-04-01T11:46:49.986Z,0.50
2023-04-01T11:49:25.435Z,0.45
2023-04-01T11:51:51.960Z,0.50
2023-04-01T11:54:30.702Z,0.63
2023-04-01T11:57:23.333Z,0.52
2023-04-01T11:59:58.130Z,0.80
2023-04-01T12:02:27.505Z,1.20
2023-04-01T12:04:55.752Z,1.25
2023-04-01T12:07:22.207Z,1.10
2023-04-01T12:10:04.678Z,0.90
2023-04-01T12:12:35.854Z,1.20
2023-04-01T12:15:18.788Z,0.90
2023-04-01T12:17:50.981Z,0.77
2023-04-01T12:20:23.198Z,0.60
2023-04-01T12:22:55.508Z,0.50
2023-04-01T12:25:39.929Z,0.80
2023-04-01T12:28:09.256Z,0.50
2023-04-01T12:30:49.932Z,0.60
2023-04-01T12:33:38.637Z,0.50
2023-04-01T12:36:05.666Z,0.60
2023-04-01T12:38:31.994Z,0.50
2023-04-01T12:41:27.860Z,0.60
2023-04-01T12:44:12.987Z,0.60
2023-04-01T12:46:42.020Z,0.50
2023-04-01T12:49:27.463Z,0.70
2023-04-01T12:51:56.623Z,0.63
2023-04-01T12:54:49.516Z,0.70
2023-04-01T12:57:34.458Z,0.50
2023-04-01T13:00:19.643Z,0.40
2023-04-01T13:02:52.000Z,0.50
2023-04-01T13:05:24.331Z,0.50
2023-04-01T13:08:12.461Z,0.80
2023-04-01T13:10:57.970Z,0.90
2023-04-01T13:13:30.569Z,0.88
2023-04-01T13:16:02.009Z,1.10
2023-04-01T13:18:28.368Z,1.20
2023-04-01T13:21:01.361Z,1.10
2023-04-01T13:23:27.800Z,0.95
2023-04-01T13:26:07.008Z,0.88
2023-04-01T13:28:43.819Z,0.75
2023-04-01T13:31:33.496Z,0.63
2023-04-01T13:34:14.360Z,0.60
2023-04-01T13:36:59.574Z,1.10
2023-04-01T13:39:29.055Z,1.20
2023-04-01T13:42:01.671Z,1.33
2023-04-01T13:44:37.018Z,1.25
2023-04-01T13:47:19.064Z,1.08
2023-04-01T13:50:04.571Z,1.15
2023-04-01T13:52:31.081Z,1.02
2023-04-01T13:55:03.844Z,1.10
2023-04-01T13:57:33.035Z,0.90
2023-04-01T14:00:34.944Z,0.90
2023-04-01T14:03:06.996Z,0.85
2023-04-01T14:05:52.210Z,0.70
2023-04-01T14:08:24.874Z,0.70
2023-04-01T14:11:10.423Z,0.68
2023-04-01T14:13:53.445Z,0.70
2023-04-01T14:16:37.236Z,0.68
2023-04-01T14:19:20.462Z,0.50
2023-04-01T14:22:02.053Z,0.80
2023-04-01T14:24:31.547Z,0.47
2023-04-01T14:27:00.601Z,0.60
2023-04-01T14:29:48.208Z,0.50
2023-04-01T14:32:14.517Z,0.30
2023-04-01T14:34:41.119Z,0.45
2023-04-01T14:37:16.911Z,0.60
2023-04-01T14:39:49.355Z,0.60
2023-04-01T14:42:36.737Z,0.50
2023-04-01T14:45:09.291Z,0.40
2023-04-01T14:47:44.647Z,0.40
2023-04-01T14:50:15.222Z,0.30
2023-04-01T14:52:44.410Z,0.32
2023-04-01T14:55:21.846Z,0.40
2023-04-01T14:58:05.702Z,0.45
2023-04-01T15:00:42.876Z,0.50
2023-04-01T15:03:15.937Z,0.40
2023-04-01T15:05:42.222Z,0.40
2023-04-01T15:08:14.580Z,0.30
2023-04-01T15:10:59.662Z,0.30
2023-04-01T15:13:26.050Z,0.43
2023-04-01T15:15:58.366Z,0.40
2023-04-01T15:18:36.943Z,0.30
2023-04-01T15:21:03.282Z,0.30
2023-04-01T15:23:38.047Z,0.20
2023-04-01T15:26:14.477Z,0.30
2023-04-01T15:28:47.813Z,0.30
2023-04-01T15:31:17.222Z,0.20
2023-04-01T15:33:43.569Z,0.10
2023-04-01T15:36:28.848Z,0.30
2023-04-01T15:38:58.253Z,0.10
2023-04-01T15:41:39.949Z,0.10
2023-04-01T15:44:26.222Z,0.10
2023-04-01T15:46:53.029Z,0.10
2023-04-01T15:49:38.802Z,0.10
2023-04-01T15:52:17.071Z,0.20
2023-04-01T15:54:55.751Z,0.10
2023-04-01T15:57:25.015Z,0.10
2023-04-01T15:59:51.359Z,0.20
2023-04-01T16:02:20.753Z,0.20
2023-04-01T16:04:59.590Z,0.20
2023-04-01T16:07:25.894Z,0.40
2023-04-01T16:09:52.254Z,0.20
2023-04-01T16:12:31.301Z,0.20
2023-04-01T16:15:00.490Z,0.15
2023-04-01T16:17:45.659Z,0.40
2023-04-01T16:20:22.782Z,0.30
2023-04-01T16:23:11.647Z,0.50
2023-04-01T16:25:42.665Z,0.45
2023-04-01T16:28:15.416Z,0.82
2023-04-01T16:30:45.653Z,0.80
2023-04-01T16:33:14.775Z,1.02
2023-04-01T16:35:56.993Z,1.02
2023-04-01T16:38:23.377Z,1.23
2023-04-01T16:40:59.073Z,1.00
2023-04-01T16:43:29.180Z,0.60
2023-04-01T16:46:14.423Z,0.60
2023-04-01T16:48:53.287Z,0.40
2023-04-01T16:51:20.312Z,0.32
2023-04-01T16:53:54.070Z,0.40
2023-04-01T16:56:24.971Z,0.30
2023-04-01T16:58:57.250Z,0.20
2023-04-01T17:01:44.067Z,0.20
2023-04-01T17:04:33.533Z,0.30
2023-04-01T17:07:08.325Z,0.28
2023-04-01T17:09:53.624Z,0.40
2023-04-01T17:12:35.022Z,0.40
2023-04-01T17:15:04.466Z,0.30
2023-04-01T17:17:31.184Z,0.50
2023-04-01T17:19:59.491Z,0.35
2023-04-01T17:22:45.059Z,0.25
2023-04-01T17:25:14.226Z,0.20
2023-04-01T17:27:40.555Z,0.20
2023-04-01T17:30:19.243Z,0.22
2023-04-01T17:33:04.344Z,0.40
2023-04-01T17:35:36.767Z,0.50
2023-04-01T17:38:06.497Z,0.50
2023-04-01T17:40:45.362Z,0.20
2023-04-01T17:43:21.129Z,0.40
2023-04-01T17:46:06.336Z,0.30
2023-04-01T17:48:35.802Z,0.20
2023-04-01T17:51:16.303Z,0.30
2023-04-01T17:53:45.745Z,0.20
2023-04-01T17:56:18.026Z,0.20
2023-04-01T17:58:48.320Z,0.32
2023-04-01T18:01:34.025Z,0.20
2023-04-01T18:04:09.583Z,0.20
2023-04-01T18:06:39.506Z,0.17
2023-04-01T18:09:24.565Z,0.20
2023-04-01T18:11:53.628Z,0.17
2023-04-01T18:14:26.145Z,0.20
2023-04-01T18:17:11.158Z,0.17
2023-04-01T18:19:52.926Z,0.30
2023-04-01T18:22:24.553Z,0.30
2023-04-01T18:25:13.758Z,0.20
2023-04-01T18:28:03.214Z,0.20
2023-04-01T18:30:31.250Z,0.30
2023-04-01T18:33:03.620Z,0.30
2023-04-01T18:35:35.860Z,0.30
2023-04-01T18:38:18.296Z,0.20
2023-04-01T18:40:50.982Z,0.22
2023-04-01T18:43:38.874Z,0.20
2023-04-01T18:46:13.124Z,0.20
2023-04-01T18:48:44.733Z,0.30
2023-04-01T18:51:34.412Z,0.30
2023-04-01T18:54:07.392Z,0.30
2023-04-01T18:56:36.366Z,0.40
2023-04-01T18:59:02.880Z,0.20
2023-04-01T19:01:49.447Z,0.30
2023-04-01T19:04:15.829Z,0.30
2023-04-01T19:06:52.791Z,0.20
2023-04-01T19:09:24.531Z,0.30
2023-04-01T19:11:51.243Z,0.30
2023-04-01T19:14:27.112Z,0.40
2023-04-01T19:17:11.045Z,0.30
2023-04-01T19:19:47.452Z,0.60
2023-04-01T19:22:32.688Z,0.30
2023-04-01T19:25:21.195Z,0.30
2023-04-01T19:27:53.494Z,0.30
2023-04-01T19:30:28.484Z,0.20
2023-04-01T19:33:05.029Z,0.20
2023-04-01T19:35:34.384Z,0.30
2023-04-01T19:38:21.649Z,0.30
2023-04-01T19:40:50.804Z,0.30
2023-04-01T19:43:32.568Z,0.20
2023-04-01T19:46:32.719Z,0.20
2023-04-01T19:48:59.279Z,0.20
2023-04-01T19:51:44.331Z,0.30
2023-04-01T19:54:10.773Z,0.20
2023-04-01T19:56:41.967Z,0.20
2023-04-01T19:59:14.123Z,0.17
2023-04-01T20:01:52.795Z,0.20
2023-04-01T20:04:48.659Z,0.20
2023-04-01T20:07:33.634Z,0.10
2023-04-01T20:10:18.051Z,0.20
2023-04-01T20:12:59.548Z,0.20
2023-04-01T20:15:26.405Z,0.30
2023-04-01T20:17:54.483Z,0.30
2023-04-01T20:20:22.273Z,0.30
2023-04-01T20:23:08.919Z,0.20
2023-04-01T20:25:44.378Z,0.30
2023-04-01T20:28:19.883Z,0.30
2023-04-01T20:30:55.300Z,0.20
2023-04-01T20:33:27.977Z,0.20
2023-04-01T20:36:12.903Z,0.30
2023-04-01T20:38:42.337Z,0.20
2023-04-01T20:41:17.298Z,0.30
2023-04-01T20:43:59.391Z,0.20
2023-04-01T20:46:38.153Z,0.22
2023-04-01T20:49:23.365Z,0.20
2023-04-01T20:52:02.059Z,0.20
2023-04-01T20:54:47.479Z,0.20
2023-04-01T20:57:17.941Z,0.30
2023-04-01T20:59:53.492Z,0.20
2023-04-01T21:02:31.875Z,0.20
2023-04-01T21:05:17.109Z,0.30
2023-04-01T21:07:58.635Z,0.20
2023-04-01T21:10:44.577Z,0.20
2023-04-01T21:13:16.632Z,0.10
2023-04-01T21:18:24.553Z,0.40
2023-04-01T21:21:00.363Z,0.50
2023-04-01T21:23:41.748Z,0.30
2023-04-01T21:26:13.736Z,0.30
2023-04-01T21:31:06.269Z,0.40
2023-04-01T21:33:46.215Z,0.60
2023-04-01T21:36:15.381Z,0.50
2023-04-01T21:38:44.725Z,0.30
2023-04-01T21:41:11.382Z,0.60
2023-04-01T21:43:52.543Z,0.50
2023-04-01T21:46:37.996Z,0.73
2023-04-01T21:49:13.357Z,0.60
2023-04-01T21:51:57.958Z,0.82
2023-04-01T21:54:42.950Z,0.80
2023-04-01T21:57:28.053Z,0.80
2023-04-01T22:00:00.367Z,0.77
2023-04-01T22:02:38.994Z,0.60
2023-04-01T22:05:12.323Z,1.02
2023-04-01T22:07:46.471Z,0.90
2023-04-01T22:10:28.231Z,0.85
2023-04-01T22:12:55.982Z,1.35
2023-04-01T22:15:47.368Z,1.05
2023-04-01T22:18:23.937Z,1.10
2023-04-01T22:20:50.212Z,0.88
2023-04-01T22:23:31.812Z,0.82
2023-04-01T22:26:07.287Z,1.00
2023-04-01T22:28:47.830Z,0.93
2023-04-01T22:31:18.165Z,1.00
2023-04-01T22:33:54.918Z,0.80
2023-04-01T22:36:41.054Z,0.80
2023-04-01T22:39:40.017Z,0.77
2023-04-01T22:42:15.302Z,0.65
2023-04-01T22:44:57.132Z,0.80
2023-04-01T22:47:32.076Z,0.82
2023-04-01T22:50:09.343Z,0.60
2023-04-01T22:52:39.930Z,0.60
2023-04-01T22:55:14.056Z,0.80
2023-04-01T22:57:43.199Z,0.93
2023-04-01T23:00:10.434Z,0.80
2023-04-01T23:02:41.533Z,0.93
2023-04-01T23:05:11.886Z,0.93
2023-04-01T23:07:47.908Z,1.15
2023-04-01T23:10:21.219Z,1.42
2023-04-01T23:12:48.639Z,1.00
2023-04-01T23:15:15.423Z,1.00
2023-04-01T23:17:54.001Z,1.10
2023-04-01T23:20:20.851Z,1.10
2023-04-01T23:23:02.581Z,0.90
2023-04-01T23:25:44.397Z,0.80
2023-04-01T23:28:31.122Z,0.77
2023-04-01T23:30:57.585Z,0.70
2023-04-01T23:33:27.336Z,0.52
2023-04-01T23:36:06.649Z,0.70
2023-04-01T23:38:37.722Z,0.70
2023-04-01T23:41:05.665Z,0.60
2023-04-01T23:43:33.790Z,0.52
2023-04-01T23:46:04.422Z,0.40
2023-04-01T23:48:33.128Z,0.60
2023-04-01T23:50:59.558Z,0.40
2023-04-01T23:53:26.847Z,0.60
2023-04-01T23:55:53.552Z,0.50
2023-04-01T23:58:28.831Z,0.60
